sensor_id;sensor_type;location;lat;lon;timestamp;P1;durP1;ratioP1;P2;durP2;ratioP2
37851;SDS011;23691;52.486;4.650;2023-07-31T00:05:22;18.20;;;4.60;;
37851;SDS011;23691;52.486;4.650;2023-07-31T00:28:51;17.05;;;4.07;;
37851;SDS011;23691;52.486;4.650;2023-07-31T00:54:32;20.95;;;4.60;;
37851;SDS011;23691;52.486;4.650;2023-07-31T00:57:24;18.80;;;4.53;;
37851;SDS011;23691;52.486;4.650;2023-07-31T01:03:23;20.42;;;4.97;;
37851;SDS011;23691;52.486;4.650;2023-07-31T01:17:09;24.73;;;5.78;;
37851;SDS011;23691;52.486;4.650;2023-07-31T01:30:31;26.27;;;5.60;;
37851;SDS011;23691;52.486;4.650;2023-07-31T01:43:39;27.17;;;6.65;;
37851;SDS011;23691;52.486;4.650;2023-07-31T01:46:24;29.95;;;7.10;;
37851;SDS011;23691;52.486;4.650;2023-07-31T01:49:23;31.50;;;7.65;;
37851;SDS011;23691;52.486;4.650;2023-07-31T01:55:55;26.65;;;6.55;;
37851;SDS011;23691;52.486;4.650;2023-07-31T01:58:14;29.80;;;6.38;;
37851;SDS011;23691;52.486;4.650;2023-07-31T02:01:08;26.75;;;7.35;;
37851;SDS011;23691;52.486;4.650;2023-07-31T02:07:23;29.33;;;6.45;;
37851;SDS011;23691;52.486;4.650;2023-07-31T02:11:00;27.30;;;6.72;;
37851;SDS011;23691;52.486;4.650;2023-07-31T02:13:35;24.88;;;6.25;;
37851;SDS011;23691;52.486;4.650;2023-07-31T02:16:03;30.05;;;7.47;;
37851;SDS011;23691;52.486;4.650;2023-07-31T02:18:39;32.42;;;7.55;;
37851;SDS011;23691;52.486;4.650;2023-07-31T02:21:18;19.95;;;6.15;;
37851;SDS011;23691;52.486;4.650;2023-07-31T02:23:55;26.85;;;6.50;;
37851;SDS011;23691;52.486;4.650;2023-07-31T02:27:07;28.48;;;6.13;;
37851;SDS011;23691;52.486;4.650;2023-07-31T02:29:41;32.33;;;7.15;;
37851;SDS011;23691;52.486;4.650;2023-07-31T02:32:07;28.48;;;6.45;;
37851;SDS011;23691;52.486;4.650;2023-07-31T02:41:01;26.33;;;7.18;;
37851;SDS011;23691;52.486;4.650;2023-07-31T02:43:30;26.20;;;6.55;;
37851;SDS011;23691;52.486;4.650;2023-07-31T02:49:08;25.42;;;6.97;;
37851;SDS011;23691;52.486;4.650;2023-07-31T02:51:33;25.95;;;6.55;;
37851;SDS011;23691;52.486;4.650;2023-07-31T02:54:13;29.42;;;6.97;;
37851;SDS011;23691;52.486;4.650;2023-07-31T03:00:21;29.35;;;6.68;;
37851;SDS011;23691;52.486;4.650;2023-07-31T03:03:10;22.42;;;6.40;;
37851;SDS011;23691;52.486;4.650;2023-07-31T03:06:00;28.13;;;7.22;;
37851;SDS011;23691;52.486;4.650;2023-07-31T03:08:39;28.92;;;7.43;;
37851;SDS011;23691;52.486;4.650;2023-07-31T03:11:15;31.90;;;7.80;;
37851;SDS011;23691;52.486;4.650;2023-07-31T03:13:43;23.83;;;6.65;;
37851;SDS011;23691;52.486;4.650;2023-07-31T03:16:09;27.65;;;6.47;;
37851;SDS011;23691;52.486;4.650;2023-07-31T03:18:56;20.50;;;5.93;;
37851;SDS011;23691;52.486;4.650;2023-07-31T03:22:13;30.13;;;7.18;;
37851;SDS011;23691;52.486;4.650;2023-07-31T03:25:58;24.95;;;6.80;;
37851;SDS011;23691;52.486;4.650;2023-07-31T03:28:49;25.15;;;6.22;;
37851;SDS011;23691;52.486;4.650;2023-07-31T03:34:30;25.97;;;6.13;;
37851;SDS011;23691;52.486;4.650;2023-07-31T03:46:55;30.35;;;7.20;;
37851;SDS011;23691;52.486;4.650;2023-07-31T03:52:56;35.13;;;7.35;;
37851;SDS011;23691;52.486;4.650;2023-07-31T03:55:51;26.25;;;6.93;;
37851;SDS011;23691;52.486;4.650;2023-07-31T03:58:25;26.60;;;6.40;;
37851;SDS011;23691;52.486;4.650;2023-07-31T04:01:06;24.50;;;6.32;;
37851;SDS011;23691;52.486;4.650;2023-07-31T04:04:04;31.30;;;5.85;;
37851;SDS011;23691;52.486;4.650;2023-07-31T04:06:36;24.98;;;6.35;;
37851;SDS011;23691;52.486;4.650;2023-07-31T04:09:09;27.15;;;6.07;;
37851;SDS011;23691;52.486;4.650;2023-07-31T04:12:31;26.13;;;6.10;;
37851;SDS011;23691;52.486;4.650;2023-07-31T04:18:01;28.77;;;5.88;;
37851;SDS011;23691;52.486;4.650;2023-07-31T04:20:37;26.60;;;6.35;;
37851;SDS011;23691;52.486;4.650;2023-07-31T04:23:16;26.98;;;6.18;;
37851;SDS011;23691;52.486;4.650;2023-07-31T04:25:44;18.45;;;4.88;;
37851;SDS011;23691;52.486;4.650;2023-07-31T04:28:27;21.75;;;4.85;;
37851;SDS011;23691;52.486;4.650;2023-07-31T04:30:57;18.08;;;4.38;;
37851;SDS011;23691;52.486;4.650;2023-07-31T04:34:02;15.90;;;4.07;;
37851;SDS011;23691;52.486;4.650;2023-07-31T04:37:10;15.43;;;3.00;;
37851;SDS011;23691;52.486;4.650;2023-07-31T04:40:31;17.02;;;3.15;;
37851;SDS011;23691;52.486;4.650;2023-07-31T04:46:20;10.73;;;2.72;;
37851;SDS011;23691;52.486;4.650;2023-07-31T04:52:50;11.15;;;2.40;;
37851;SDS011;23691;52.486;4.650;2023-07-31T05:01:22;8.68;;;1.52;;
37851;SDS011;23691;52.486;4.650;2023-07-31T05:07:41;10.23;;;1.35;;
37851;SDS011;23691;52.486;4.650;2023-07-31T05:10:13;11.55;;;1.60;;
37851;SDS011;23691;52.486;4.650;2023-07-31T05:12:38;12.10;;;1.70;;
37851;SDS011;23691;52.486;4.650;2023-07-31T05:22:56;10.27;;;1.67;;
37851;SDS011;23691;52.486;4.650;2023-07-31T05:25:25;10.52;;;2.00;;
37851;SDS011;23691;52.486;4.650;2023-07-31T05:27:55;17.25;;;2.10;;
37851;SDS011;23691;52.486;4.650;2023-07-31T05:33:48;16.02;;;2.50;;
37851;SDS011;23691;52.486;4.650;2023-07-31T05:37:03;15.65;;;2.58;;
37851;SDS011;23691;52.486;4.650;2023-07-31T05:42:43;18.35;;;3.38;;
37851;SDS011;23691;52.486;4.650;2023-07-31T05:55:40;20.17;;;3.75;;
37851;SDS011;23691;52.486;4.650;2023-07-31T05:58:09;16.35;;;3.75;;
37851;SDS011;23691;52.486;4.650;2023-07-31T06:11:16;19.05;;;4.15;;
37851;SDS011;23691;52.486;4.650;2023-07-31T06:20:05;17.17;;;3.78;;
37851;SDS011;23691;52.486;4.650;2023-07-31T06:22:31;18.85;;;3.60;;
37851;SDS011;23691;52.486;4.650;2023-07-31T06:25:02;20.00;;;4.43;;
37851;SDS011;23691;52.486;4.650;2023-07-31T06:27:28;19.05;;;4.00;;
37851;SDS011;23691;52.486;4.650;2023-07-31T06:29:53;19.15;;;3.60;;
37851;SDS011;23691;52.486;4.650;2023-07-31T06:32:19;20.08;;;3.50;;
37851;SDS011;23691;52.486;4.650;2023-07-31T06:34:44;19.67;;;3.50;;
37851;SDS011;23691;52.486;4.650;2023-07-31T06:37:16;18.02;;;3.40;;
37851;SDS011;23691;52.486;4.650;2023-07-31T06:39:41;20.70;;;3.97;;
37851;SDS011;23691;52.486;4.650;2023-07-31T06:42:07;22.98;;;4.22;;
37851;SDS011;23691;52.486;4.650;2023-07-31T06:44:32;16.73;;;3.72;;
37851;SDS011;23691;52.486;4.650;2023-07-31T06:46:57;20.08;;;3.45;;
37851;SDS011;23691;52.486;4.650;2023-07-31T06:49:23;19.30;;;3.53;;
37851;SDS011;23691;52.486;4.650;2023-07-31T06:51:51;16.25;;;3.17;;
37851;SDS011;23691;52.486;4.650;2023-07-31T06:54:16;18.33;;;3.72;;
37851;SDS011;23691;52.486;4.650;2023-07-31T06:56:41;21.23;;;4.22;;
37851;SDS011;23691;52.486;4.650;2023-07-31T06:59:07;17.25;;;3.33;;
37851;SDS011;23691;52.486;4.650;2023-07-31T07:01:33;16.90;;;3.42;;
37851;SDS011;23691;52.486;4.650;2023-07-31T07:03:58;20.27;;;4.22;;
37851;SDS011;23691;52.486;4.650;2023-07-31T07:06:23;20.98;;;3.33;;
37851;SDS011;23691;52.486;4.650;2023-07-31T07:08:49;16.70;;;2.50;;
37851;SDS011;23691;52.486;4.650;2023-07-31T07:11:14;18.80;;;3.28;;
37851;SDS011;23691;52.486;4.650;2023-07-31T07:13:39;18.25;;;3.40;;
37851;SDS011;23691;52.486;4.650;2023-07-31T07:16:05;19.02;;;3.67;;
37851;SDS011;23691;52.486;4.650;2023-07-31T07:18:30;15.45;;;2.85;;
37851;SDS011;23691;52.486;4.650;2023-07-31T07:20:56;20.30;;;3.20;;
37851;SDS011;23691;52.486;4.650;2023-07-31T07:23:23;15.88;;;3.25;;
37851;SDS011;23691;52.486;4.650;2023-07-31T07:25:51;18.17;;;3.50;;
37851;SDS011;23691;52.486;4.650;2023-07-31T07:28:16;18.88;;;3.65;;
37851;SDS011;23691;52.486;4.650;2023-07-31T07:30:42;23.23;;;3.45;;
37851;SDS011;23691;52.486;4.650;2023-07-31T07:33:07;19.10;;;4.20;;
37851;SDS011;23691;52.486;4.650;2023-07-31T07:35:33;20.77;;;3.88;;
37851;SDS011;23691;52.486;4.650;2023-07-31T07:37:59;20.42;;;3.90;;
37851;SDS011;23691;52.486;4.650;2023-07-31T07:40:28;22.23;;;4.47;;
37851;SDS011;23691;52.486;4.650;2023-07-31T07:42:53;19.30;;;3.78;;
37851;SDS011;23691;52.486;4.650;2023-07-31T07:45:21;23.55;;;4.28;;
37851;SDS011;23691;52.486;4.650;2023-07-31T07:48:29;22.85;;;4.40;;
37851;SDS011;23691;52.486;4.650;2023-07-31T07:52:06;22.50;;;4.15;;
37851;SDS011;23691;52.486;4.650;2023-07-31T07:54:34;20.33;;;4.40;;
37851;SDS011;23691;52.486;4.650;2023-07-31T07:57:00;20.80;;;4.82;;
37851;SDS011;23691;52.486;4.650;2023-07-31T07:59:25;22.08;;;4.47;;
37851;SDS011;23691;52.486;4.650;2023-07-31T08:01:54;22.42;;;4.85;;
37851;SDS011;23691;52.486;4.650;2023-07-31T08:04:27;21.75;;;4.45;;
37851;SDS011;23691;52.486;4.650;2023-07-31T08:06:52;22.10;;;4.75;;
37851;SDS011;23691;52.486;4.650;2023-07-31T08:09:21;18.08;;;4.00;;
37851;SDS011;23691;52.486;4.650;2023-07-31T08:11:47;19.92;;;4.18;;
37851;SDS011;23691;52.486;4.650;2023-07-31T08:14:13;22.15;;;4.28;;
37851;SDS011;23691;52.486;4.650;2023-07-31T08:16:38;18.77;;;3.38;;
37851;SDS011;23691;52.486;4.650;2023-07-31T08:19:04;21.33;;;4.05;;
37851;SDS011;23691;52.486;4.650;2023-07-31T08:21:30;17.48;;;3.45;;
37851;SDS011;23691;52.486;4.650;2023-07-31T08:23:58;16.98;;;3.15;;
37851;SDS011;23691;52.486;4.650;2023-07-31T08:26:24;14.35;;;2.85;;
37851;SDS011;23691;52.486;4.650;2023-07-31T08:28:49;12.45;;;2.58;;
37851;SDS011;23691;52.486;4.650;2023-07-31T08:31:15;15.63;;;2.80;;
37851;SDS011;23691;52.486;4.650;2023-07-31T08:33:40;16.02;;;2.85;;
37851;SDS011;23691;52.486;4.650;2023-07-31T08:36:09;15.55;;;2.90;;
37851;SDS011;23691;52.486;4.650;2023-07-31T08:38:39;18.73;;;3.08;;
37851;SDS011;23691;52.486;4.650;2023-07-31T08:43:32;16.98;;;3.08;;
37851;SDS011;23691;52.486;4.650;2023-07-31T08:46:03;11.43;;;2.65;;
37851;SDS011;23691;52.486;4.650;2023-07-31T08:48:33;17.73;;;3.17;;
37851;SDS011;23691;52.486;4.650;2023-07-31T08:51:02;22.88;;;3.50;;
37851;SDS011;23691;52.486;4.650;2023-07-31T08:53:27;20.90;;;3.70;;
37851;SDS011;23691;52.486;4.650;2023-07-31T08:55:53;18.00;;;3.33;;
37851;SDS011;23691;52.486;4.650;2023-07-31T08:58:19;16.52;;;3.20;;
37851;SDS011;23691;52.486;4.650;2023-07-31T09:00:46;20.10;;;3.25;;
37851;SDS011;23691;52.486;4.650;2023-07-31T09:03:16;22.55;;;3.10;;
37851;SDS011;23691;52.486;4.650;2023-07-31T09:05:45;15.93;;;3.10;;
37851;SDS011;23691;52.486;4.650;2023-07-31T09:08:12;17.00;;;3.03;;
37851;SDS011;23691;52.486;4.650;2023-07-31T09:10:42;19.05;;;3.42;;
37851;SDS011;23691;52.486;4.650;2023-07-31T09:13:11;17.48;;;3.20;;
37851;SDS011;23691;52.486;4.650;2023-07-31T09:15:45;21.67;;;3.63;;
37851;SDS011;23691;52.486;4.650;2023-07-31T09:18:11;17.58;;;3.40;;
37851;SDS011;23691;52.486;4.650;2023-07-31T09:20:37;17.63;;;3.15;;
37851;SDS011;23691;52.486;4.650;2023-07-31T09:25:45;15.85;;;3.53;;
37851;SDS011;23691;52.486;4.650;2023-07-31T09:28:11;21.15;;;3.35;;
37851;SDS011;23691;52.486;4.650;2023-07-31T09:30:44;21.52;;;3.13;;
37851;SDS011;23691;52.486;4.650;2023-07-31T09:33:15;20.15;;;3.13;;
37851;SDS011;23691;52.486;4.650;2023-07-31T09:35:47;17.70;;;3.10;;
37851;SDS011;23691;52.486;4.650;2023-07-31T09:38:18;15.50;;;2.67;;
37851;SDS011;23691;52.486;4.650;2023-07-31T09:40:44;16.50;;;2.38;;
37851;SDS011;23691;52.486;4.650;2023-07-31T09:43:17;19.38;;;3.25;;
37851;SDS011;23691;52.486;4.650;2023-07-31T09:45:54;17.58;;;3.30;;
37851;SDS011;23691;52.486;4.650;2023-07-31T09:48:23;16.25;;;2.60;;
37851;SDS011;23691;52.486;4.650;2023-07-31T09:50:55;17.20;;;3.13;;
37851;SDS011;23691;52.486;4.650;2023-07-31T09:53:28;19.38;;;3.17;;
37851;SDS011;23691;52.486;4.650;2023-07-31T09:55:55;16.10;;;2.97;;
37851;SDS011;23691;52.486;4.650;2023-07-31T09:58:23;19.30;;;3.25;;
37851;SDS011;23691;52.486;4.650;2023-07-31T10:00:53;14.60;;;3.17;;
37851;SDS011;23691;52.486;4.650;2023-07-31T10:03:24;19.05;;;3.28;;
37851;SDS011;23691;52.486;4.650;2023-07-31T10:05:54;15.23;;;3.33;;
37851;SDS011;23691;52.486;4.650;2023-07-31T10:08:21;20.48;;;3.67;;
37851;SDS011;23691;52.486;4.650;2023-07-31T10:13:14;18.05;;;3.28;;
37851;SDS011;23691;52.486;4.650;2023-07-31T10:15:40;15.77;;;2.92;;
37851;SDS011;23691;52.486;4.650;2023-07-31T10:23:12;20.38;;;3.55;;
37851;SDS011;23691;52.486;4.650;2023-07-31T10:25:38;17.08;;;3.15;;
37851;SDS011;23691;52.486;4.650;2023-07-31T10:28:04;18.27;;;3.45;;
37851;SDS011;23691;52.486;4.650;2023-07-31T10:30:30;14.82;;;3.00;;
37851;SDS011;23691;52.486;4.650;2023-07-31T10:33:01;13.60;;;2.80;;
37851;SDS011;23691;52.486;4.650;2023-07-31T10:35:27;17.42;;;3.55;;
37851;SDS011;23691;52.486;4.650;2023-07-31T10:37:53;16.15;;;3.03;;
37851;SDS011;23691;52.486;4.650;2023-07-31T10:40:20;16.08;;;3.33;;
37851;SDS011;23691;52.486;4.650;2023-07-31T10:42:53;19.63;;;2.95;;
37851;SDS011;23691;52.486;4.650;2023-07-31T10:48:14;14.73;;;3.22;;
37851;SDS011;23691;52.486;4.650;2023-07-31T10:50:48;18.48;;;3.78;;
37851;SDS011;23691;52.486;4.650;2023-07-31T10:53:32;14.40;;;3.33;;
37851;SDS011;23691;52.486;4.650;2023-07-31T10:56:02;15.35;;;3.28;;
37851;SDS011;23691;52.486;4.650;2023-07-31T10:58:36;19.58;;;3.33;;
37851;SDS011;23691;52.486;4.650;2023-07-31T11:01:05;17.70;;;3.30;;
37851;SDS011;23691;52.486;4.650;2023-07-31T11:04:26;20.70;;;3.10;;
37851;SDS011;23691;52.486;4.650;2023-07-31T11:07:03;20.33;;;3.60;;
37851;SDS011;23691;52.486;4.650;2023-07-31T11:09:44;17.98;;;3.03;;
37851;SDS011;23691;52.486;4.650;2023-07-31T11:12:24;18.23;;;3.05;;
37851;SDS011;23691;52.486;4.650;2023-07-31T11:14:56;16.80;;;3.13;;
37851;SDS011;23691;52.486;4.650;2023-07-31T11:17:32;21.15;;;3.83;;
37851;SDS011;23691;52.486;4.650;2023-07-31T11:20:15;15.55;;;3.15;;
37851;SDS011;23691;52.486;4.650;2023-07-31T11:23:15;12.60;;;3.00;;
37851;SDS011;23691;52.486;4.650;2023-07-31T11:26:01;15.60;;;3.63;;
37851;SDS011;23691;52.486;4.650;2023-07-31T11:28:50;16.65;;;3.40;;
37851;SDS011;23691;52.486;4.650;2023-07-31T11:31:35;12.30;;;2.90;;
37851;SDS011;23691;52.486;4.650;2023-07-31T11:34:20;12.63;;;2.90;;
37851;SDS011;23691;52.486;4.650;2023-07-31T11:37:01;16.33;;;2.83;;
37851;SDS011;23691;52.486;4.650;2023-07-31T11:39:48;16.75;;;3.30;;
37851;SDS011;23691;52.486;4.650;2023-07-31T11:45:26;20.58;;;3.35;;
37851;SDS011;23691;52.486;4.650;2023-07-31T11:48:02;14.13;;;3.28;;
37851;SDS011;23691;52.486;4.650;2023-07-31T11:50:56;16.58;;;2.85;;
37851;SDS011;23691;52.486;4.650;2023-07-31T11:53:45;17.15;;;3.00;;
37851;SDS011;23691;52.486;4.650;2023-07-31T11:56:46;20.67;;;3.50;;
37851;SDS011;23691;52.486;4.650;2023-07-31T11:59:32;15.52;;;2.92;;
37851;SDS011;23691;52.486;4.650;2023-07-31T12:02:46;14.43;;;2.78;;
37851;SDS011;23691;52.486;4.650;2023-07-31T12:05:18;16.20;;;2.78;;
37851;SDS011;23691;52.486;4.650;2023-07-31T12:07:51;17.50;;;2.85;;
37851;SDS011;23691;52.486;4.650;2023-07-31T12:10:27;13.80;;;3.03;;
37851;SDS011;23691;52.486;4.650;2023-07-31T12:13:10;12.15;;;2.55;;
37851;SDS011;23691;52.486;4.650;2023-07-31T12:15:53;14.85;;;2.58;;
37851;SDS011;23691;52.486;4.650;2023-07-31T12:18:44;18.40;;;2.95;;
37851;SDS011;23691;52.486;4.650;2023-07-31T12:21:14;13.93;;;2.55;;
37851;SDS011;23691;52.486;4.650;2023-07-31T12:24:08;12.77;;;2.63;;
37851;SDS011;23691;52.486;4.650;2023-07-31T12:26:45;16.02;;;3.05;;
37851;SDS011;23691;52.486;4.650;2023-07-31T12:29:14;17.20;;;2.50;;
37851;SDS011;23691;52.486;4.650;2023-07-31T12:34:31;15.90;;;2.65;;
37851;SDS011;23691;52.486;4.650;2023-07-31T12:37:14;13.48;;;3.20;;
37851;SDS011;23691;52.486;4.650;2023-07-31T12:39:42;15.55;;;2.65;;
37851;SDS011;23691;52.486;4.650;2023-07-31T12:42:20;13.55;;;2.50;;
37851;SDS011;23691;52.486;4.650;2023-07-31T12:45:10;11.90;;;2.30;;
37851;SDS011;23691;52.486;4.650;2023-07-31T12:47:40;15.65;;;2.65;;
37851;SDS011;23691;52.486;4.650;2023-07-31T12:50:10;13.45;;;2.88;;
37851;SDS011;23691;52.486;4.650;2023-07-31T12:52:58;14.10;;;2.90;;
37851;SDS011;23691;52.486;4.650;2023-07-31T12:55:40;15.07;;;2.40;;
37851;SDS011;23691;52.486;4.650;2023-07-31T12:58:25;15.57;;;2.60;;
37851;SDS011;23691;52.486;4.650;2023-07-31T13:00:53;12.90;;;2.80;;
37851;SDS011;23691;52.486;4.650;2023-07-31T13:03:31;12.77;;;2.33;;
37851;SDS011;23691;52.486;4.650;2023-07-31T13:06:07;15.07;;;2.78;;
37851;SDS011;23691;52.486;4.650;2023-07-31T13:08:39;14.88;;;2.50;;
37851;SDS011;23691;52.486;4.650;2023-07-31T13:11:41;14.82;;;3.22;;
37851;SDS011;23691;52.486;4.650;2023-07-31T13:14:15;16.23;;;2.88;;
37851;SDS011;23691;52.486;4.650;2023-07-31T13:16:51;14.55;;;2.63;;
37851;SDS011;23691;52.486;4.650;2023-07-31T13:19:16;12.55;;;2.17;;
37851;SDS011;23691;52.486;4.650;2023-07-31T13:21:42;14.20;;;2.70;;
37851;SDS011;23691;52.486;4.650;2023-07-31T13:24:11;13.52;;;2.65;;
37851;SDS011;23691;52.486;4.650;2023-07-31T13:26:42;13.95;;;2.40;;
37851;SDS011;23691;52.486;4.650;2023-07-31T13:29:13;12.07;;;2.13;;
37851;SDS011;23691;52.486;4.650;2023-07-31T13:31:39;14.63;;;2.13;;
37851;SDS011;23691;52.486;4.650;2023-07-31T13:34:04;11.20;;;1.80;;
37851;SDS011;23691;52.486;4.650;2023-07-31T13:36:30;12.15;;;2.10;;
37851;SDS011;23691;52.486;4.650;2023-07-31T13:38:55;16.40;;;2.30;;
37851;SDS011;23691;52.486;4.650;2023-07-31T13:41:20;10.70;;;1.90;;
37851;SDS011;23691;52.486;4.650;2023-07-31T13:43:46;8.35;;;1.70;;
37851;SDS011;23691;52.486;4.650;2023-07-31T13:46:11;8.75;;;1.52;;
37851;SDS011;23691;52.486;4.650;2023-07-31T13:48:36;9.65;;;1.75;;
37851;SDS011;23691;52.486;4.650;2023-07-31T13:51:02;9.77;;;1.60;;
37851;SDS011;23691;52.486;4.650;2023-07-31T13:53:27;10.68;;;2.00;;
37851;SDS011;23691;52.486;4.650;2023-07-31T13:55:53;14.32;;;2.13;;
37851;SDS011;23691;52.486;4.650;2023-07-31T13:58:18;10.30;;;2.15;;
37851;SDS011;23691;52.486;4.650;2023-07-31T14:00:43;11.27;;;2.00;;
37851;SDS011;23691;52.486;4.650;2023-07-31T14:03:09;13.02;;;2.45;;
37851;SDS011;23691;52.486;4.650;2023-07-31T14:05:34;12.93;;;2.28;;
37851;SDS011;23691;52.486;4.650;2023-07-31T14:08:09;11.63;;;2.28;;
37851;SDS011;23691;52.486;4.650;2023-07-31T14:10:40;14.15;;;2.63;;
37851;SDS011;23691;52.486;4.650;2023-07-31T14:13:05;19.17;;;3.10;;
37851;SDS011;23691;52.486;4.650;2023-07-31T14:15:31;12.88;;;2.75;;
37851;SDS011;23691;52.486;4.650;2023-07-31T14:17:57;18.48;;;3.35;;
37851;SDS011;23691;52.486;4.650;2023-07-31T14:20:22;17.05;;;3.17;;
37851;SDS011;23691;52.486;4.650;2023-07-31T14:22:48;12.35;;;2.78;;
37851;SDS011;23691;52.486;4.650;2023-07-31T14:25:13;15.38;;;3.22;;
37851;SDS011;23691;52.486;4.650;2023-07-31T14:27:38;20.85;;;3.60;;
37851;SDS011;23691;52.486;4.650;2023-07-31T14:30:04;19.42;;;3.25;;
37851;SDS011;23691;52.486;4.650;2023-07-31T14:37:39;18.90;;;3.08;;
37851;SDS011;23691;52.486;4.650;2023-07-31T14:40:10;16.75;;;2.97;;
37851;SDS011;23691;52.486;4.650;2023-07-31T14:42:39;13.32;;;2.80;;
37851;SDS011;23691;52.486;4.650;2023-07-31T14:45:05;16.70;;;2.97;;
37851;SDS011;23691;52.486;4.650;2023-07-31T14:47:32;19.80;;;3.58;;
37851;SDS011;23691;52.486;4.650;2023-07-31T14:49:58;15.68;;;2.83;;
37851;SDS011;23691;52.486;4.650;2023-07-31T14:52:24;17.95;;;3.33;;
37851;SDS011;23691;52.486;4.650;2023-07-31T14:54:50;16.73;;;2.47;;
37851;SDS011;23691;52.486;4.650;2023-07-31T14:57:15;16.77;;;3.30;;
37851;SDS011;23691;52.486;4.650;2023-07-31T14:59:41;16.25;;;2.83;;
37851;SDS011;23691;52.486;4.650;2023-07-31T15:02:08;14.32;;;2.40;;
37851;SDS011;23691;52.486;4.650;2023-07-31T15:04:36;12.73;;;2.08;;
37851;SDS011;23691;52.486;4.650;2023-07-31T15:07:04;17.77;;;2.65;;
37851;SDS011;23691;52.486;4.650;2023-07-31T15:09:30;15.45;;;2.60;;
37851;SDS011;23691;52.486;4.650;2023-07-31T15:11:56;18.90;;;3.38;;
37851;SDS011;23691;52.486;4.650;2023-07-31T15:14:22;15.43;;;2.95;;
37851;SDS011;23691;52.486;4.650;2023-07-31T15:16:48;15.77;;;2.58;;
37851;SDS011;23691;52.486;4.650;2023-07-31T15:19:14;20.67;;;3.30;;
37851;SDS011;23691;52.486;4.650;2023-07-31T15:21:39;19.77;;;3.42;;
37851;SDS011;23691;52.486;4.650;2023-07-31T15:24:05;16.83;;;3.17;;
37851;SDS011;23691;52.486;4.650;2023-07-31T15:26:33;18.40;;;3.13;;
37851;SDS011;23691;52.486;4.650;2023-07-31T15:29:02;13.98;;;2.25;;
37851;SDS011;23691;52.486;4.650;2023-07-31T15:31:40;13.45;;;2.63;;
37851;SDS011;23691;52.486;4.650;2023-07-31T15:34:06;18.42;;;2.90;;
37851;SDS011;23691;52.486;4.650;2023-07-31T15:36:31;13.73;;;2.28;;
37851;SDS011;23691;52.486;4.650;2023-07-31T15:38:57;14.40;;;2.65;;
37851;SDS011;23691;52.486;4.650;2023-07-31T15:41:23;16.92;;;2.70;;
37851;SDS011;23691;52.486;4.650;2023-07-31T15:43:48;15.45;;;2.70;;
37851;SDS011;23691;52.486;4.650;2023-07-31T15:46:14;15.27;;;2.63;;
37851;SDS011;23691;52.486;4.650;2023-07-31T15:48:40;16.63;;;3.33;;
37851;SDS011;23691;52.486;4.650;2023-07-31T15:51:05;18.17;;;2.70;;
37851;SDS011;23691;52.486;4.650;2023-07-31T15:53:31;14.10;;;3.00;;
37851;SDS011;23691;52.486;4.650;2023-07-31T15:55:56;15.50;;;3.17;;
37851;SDS011;23691;52.486;4.650;2023-07-31T15:58:22;14.80;;;2.53;;
37851;SDS011;23691;52.486;4.650;2023-07-31T16:00:47;13.43;;;2.95;;
37851;SDS011;23691;52.486;4.650;2023-07-31T16:03:13;13.20;;;2.58;;
37851;SDS011;23691;52.486;4.650;2023-07-31T16:05:38;17.80;;;3.30;;
37851;SDS011;23691;52.486;4.650;2023-07-31T16:08:03;13.52;;;3.25;;
37851;SDS011;23691;52.486;4.650;2023-07-31T16:10:29;16.85;;;3.80;;
37851;SDS011;23691;52.486;4.650;2023-07-31T16:12:54;18.50;;;3.80;;
37851;SDS011;23691;52.486;4.650;2023-07-31T16:15:20;18.92;;;3.05;;
37851;SDS011;23691;52.486;4.650;2023-07-31T16:17:45;15.35;;;3.20;;
37851;SDS011;23691;52.486;4.650;2023-07-31T16:20:10;13.68;;;2.58;;
37851;SDS011;23691;52.486;4.650;2023-07-31T16:22:36;17.38;;;3.15;;
37851;SDS011;23691;52.486;4.650;2023-07-31T16:25:01;20.33;;;3.28;;
37851;SDS011;23691;52.486;4.650;2023-07-31T16:27:27;13.77;;;2.67;;
37851;SDS011;23691;52.486;4.650;2023-07-31T16:29:52;15.18;;;2.53;;
37851;SDS011;23691;52.486;4.650;2023-07-31T16:32:18;14.88;;;2.63;;
37851;SDS011;23691;52.486;4.650;2023-07-31T16:34:43;14.10;;;2.10;;
37851;SDS011;23691;52.486;4.650;2023-07-31T16:37:09;13.55;;;2.35;;
37851;SDS011;23691;52.486;4.650;2023-07-31T16:39:34;15.95;;;2.58;;
37851;SDS011;23691;52.486;4.650;2023-07-31T16:44:28;20.25;;;3.10;;
37851;SDS011;23691;52.486;4.650;2023-07-31T16:46:54;12.05;;;2.42;;
37851;SDS011;23691;52.486;4.650;2023-07-31T16:49:19;19.08;;;3.95;;
37851;SDS011;23691;52.486;4.650;2023-07-31T16:51:46;15.98;;;3.33;;
37851;SDS011;23691;52.486;4.650;2023-07-31T16:54:12;12.50;;;2.53;;
37851;SDS011;23691;52.486;4.650;2023-07-31T16:56:37;21.48;;;3.42;;
37851;SDS011;23691;52.486;4.650;2023-07-31T16:59:02;19.08;;;2.65;;
37851;SDS011;23691;52.486;4.650;2023-07-31T17:01:28;15.80;;;2.67;;
37851;SDS011;23691;52.486;4.650;2023-07-31T17:03:57;12.50;;;2.20;;
37851;SDS011;23691;52.486;4.650;2023-07-31T17:06:24;14.63;;;2.50;;
37851;SDS011;23691;52.486;4.650;2023-07-31T17:08:53;12.63;;;2.70;;
37851;SDS011;23691;52.486;4.650;2023-07-31T17:11:19;20.17;;;3.00;;
37851;SDS011;23691;52.486;4.650;2023-07-31T17:13:44;15.63;;;2.75;;
37851;SDS011;23691;52.486;4.650;2023-07-31T17:16:09;16.42;;;3.03;;
37851;SDS011;23691;52.486;4.650;2023-07-31T17:18:35;23.50;;;3.13;;
37851;SDS011;23691;52.486;4.650;2023-07-31T17:21:00;16.00;;;2.85;;
37851;SDS011;23691;52.486;4.650;2023-07-31T17:23:25;15.38;;;2.50;;
37851;SDS011;23691;52.486;4.650;2023-07-31T17:25:51;17.60;;;2.70;;
37851;SDS011;23691;52.486;4.650;2023-07-31T17:28:16;13.43;;;2.47;;
37851;SDS011;23691;52.486;4.650;2023-07-31T17:30:42;13.93;;;2.70;;
37851;SDS011;23691;52.486;4.650;2023-07-31T17:33:07;13.02;;;2.65;;
37851;SDS011;23691;52.486;4.650;2023-07-31T17:35:33;19.00;;;2.33;;
37851;SDS011;23691;52.486;4.650;2023-07-31T17:37:58;15.40;;;2.80;;
37851;SDS011;23691;52.486;4.650;2023-07-31T17:40:23;17.20;;;2.60;;
37851;SDS011;23691;52.486;4.650;2023-07-31T17:42:49;14.68;;;2.50;;
37851;SDS011;23691;52.486;4.650;2023-07-31T17:45:14;17.33;;;3.05;;
37851;SDS011;23691;52.486;4.650;2023-07-31T17:47:42;23.55;;;3.58;;
37851;SDS011;23691;52.486;4.650;2023-07-31T17:50:08;17.17;;;2.90;;
37851;SDS011;23691;52.486;4.650;2023-07-31T17:52:34;15.48;;;2.65;;
37851;SDS011;23691;52.486;4.650;2023-07-31T17:55:00;16.00;;;2.60;;
37851;SDS011;23691;52.486;4.650;2023-07-31T17:57:26;13.13;;;2.42;;
37851;SDS011;23691;52.486;4.650;2023-07-31T17:59:51;24.30;;;3.67;;
37851;SDS011;23691;52.486;4.650;2023-07-31T18:02:17;14.45;;;3.03;;
37851;SDS011;23691;52.486;4.650;2023-07-31T18:04:43;12.77;;;3.42;;
37851;SDS011;23691;52.486;4.650;2023-07-31T18:07:09;16.17;;;2.95;;
37851;SDS011;23691;52.486;4.650;2023-07-31T18:09:35;13.15;;;2.70;;
37851;SDS011;23691;52.486;4.650;2023-07-31T18:12:00;16.15;;;2.60;;
37851;SDS011;23691;52.486;4.650;2023-07-31T18:14:26;13.43;;;2.58;;
37851;SDS011;23691;52.486;4.650;2023-07-31T18:16:53;17.50;;;3.30;;
37851;SDS011;23691;52.486;4.650;2023-07-31T18:19:18;13.90;;;2.45;;
37851;SDS011;23691;52.486;4.650;2023-07-31T18:21:44;14.90;;;3.30;;
37851;SDS011;23691;52.486;4.650;2023-07-31T18:24:09;13.55;;;3.20;;
37851;SDS011;23691;52.486;4.650;2023-07-31T18:26:35;15.05;;;3.67;;
37851;SDS011;23691;52.486;4.650;2023-07-31T18:29:02;15.82;;;3.20;;
37851;SDS011;23691;52.486;4.650;2023-07-31T18:31:27;13.63;;;3.30;;
37851;SDS011;23691;52.486;4.650;2023-07-31T18:33:54;14.93;;;3.13;;
37851;SDS011;23691;52.486;4.650;2023-07-31T18:36:20;13.10;;;2.88;;